Airfield :
LOGIN :

Register | Disclaimer

   EN    FR    IT 

 










Legend :    VFR   Marginal VFR   IFR   Intensive IFR   Very Intensive IFR
Visi :
Ceiling :
>= 8 km
>= 3000ft
5 to 8 km
1000 to 3000 ft
1500m to 5 km
500 to 1000 ft
800 to 1500m
200 to 500 ft
< 800m
< 200 ft
Symbols :   Thunderstorms  Fog  Heavy snow  Heavy precipitations  Wind > 20 kt
SIGMETs :     Misc.  Thunderstorms  Icing  Turbulence  Mountain Waves  Volcanic Ashes






- Airport Elevation : 296 ft
- IATA code : GKE


ETNG - Geilenkirchen

CURRENT METAR :
  • 241150Z AUTO 23009G19KT 160V270 9999 SCT027/// OVC041/// 06/00 Q1000

EXPIRED METARs :
  • 241050Z AUTO 21009KT 160V260 9999 FEW022/// BKN025/// OVC029/// 06/M00 Q0999
  • 240950Z AUTO 23008KT 160V290 9999 FEW016/// BKN044/// 06/02 Q0999 TEMPO -SHRA
  • 240904Z AUTO 23007KT 180V300 9999 SCT013/// BKN019/// OVC041/// 04/02 Q0998 TEMPO -SHRA
  • 240850Z AUTO 23007KT 180V260 9999 BKN013/// BKN029/// BKN036/// 04/02 Q0998 TEMPO -SHRA
  • 240834Z AUTO 23009G19KT 200V270 9999 FEW012/// BKN014/// BKN028/// 04/02 Q0998 TEMPO -SHRA
  • 240750Z AUTO 21006KT 160V250 9999 SCT017/// BKN027/// OVC032/// 05/03 Q0997 TEMPO -SHRA

Expired Forecast.



MET'MAP, your aeronautical weather chart ! - Copyright ORBIFLY December 2007 - Disclaimer

ORBIFLY MET'MAP TEAM :

Programming & Development : Alexandra Zaïnal
Original concept : Baudouin d'Aumeries
Technical & hardware support : Manuel Goepfert
Assistance : Marc-Olivier Méhu




SOURCES & CREDITS :

   NOAA